sensor_id;sensor_type;location;lat;lon;timestamp;pressure;altitude;pressure_sealevel;temperature;humidity
11985;BME280;6052;53.246;10.368;2023-05-01T00:01:06;101553.94;;;12.82;62.43
11985;BME280;6052;53.246;10.368;2023-05-01T00:03:36;101550.44;;;12.93;62.07
11985;BME280;6052;53.246;10.368;2023-05-01T00:06:08;101555.31;;;12.73;63.02
11985;BME280;6052;53.246;10.368;2023-05-01T00:08:37;101555.31;;;12.73;62.47
11985;BME280;6052;53.246;10.368;2023-05-01T00:11:08;101553.22;;;12.75;62.49
11985;BME280;6052;53.246;10.368;2023-05-01T00:13:39;101543.84;;;12.66;62.16
11985;BME280;6052;53.246;10.368;2023-05-01T00:16:09;101537.84;;;12.64;62.27
11985;BME280;6052;53.246;10.368;2023-05-01T00:18:39;101542.06;;;12.71;61.80
11985;BME280;6052;53.246;10.368;2023-05-01T00:21:13;101534.34;;;12.75;61.89
11985;BME280;6052;53.246;10.368;2023-05-01T00:23:42;101537.63;;;12.65;61.98
11985;BME280;6052;53.246;10.368;2023-05-01T00:26:15;101531.66;;;12.34;62.68
11985;BME280;6052;53.246;10.368;2023-05-01T00:28:45;101534.69;;;12.37;63.20
11985;BME280;6052;53.246;10.368;2023-05-01T00:31:16;101535.75;;;12.36;62.75
11985;BME280;6052;53.246;10.368;2023-05-01T00:33:45;101526.53;;;12.44;62.91
11985;BME280;6052;53.246;10.368;2023-05-01T00:36:17;101527.44;;;12.38;63.32
11985;BME280;6052;53.246;10.368;2023-05-01T00:38:46;101519.38;;;12.38;63.02
11985;BME280;6052;53.246;10.368;2023-05-01T00:41:16;101523.25;;;12.42;62.77
11985;BME280;6052;53.246;10.368;2023-05-01T00:43:45;101525.03;;;12.48;62.70
11985;BME280;6052;53.246;10.368;2023-05-01T00:46:14;101517.47;;;12.27;62.95
11985;BME280;6052;53.246;10.368;2023-05-01T00:48:45;101519.41;;;12.20;62.67
11985;BME280;6052;53.246;10.368;2023-05-01T00:51:17;101518.81;;;12.18;63.09
11985;BME280;6052;53.246;10.368;2023-05-01T00:53:48;101523.72;;;12.21;62.92
11985;BME280;6052;53.246;10.368;2023-05-01T00:56:20;101512.03;;;12.15;62.98
11985;BME280;6052;53.246;10.368;2023-05-01T00:58:52;101516.34;;;12.16;62.69
11985;BME280;6052;53.246;10.368;2023-05-01T01:01:24;101513.88;;;12.15;62.61
11985;BME280;6052;53.246;10.368;2023-05-01T01:03:54;101510.22;;;12.09;63.21
11985;BME280;6052;53.246;10.368;2023-05-01T01:06:32;101499.88;;;11.77;64.09
11985;BME280;6052;53.246;10.368;2023-05-01T01:09:12;101506.81;;;11.84;63.65
11985;BME280;6052;53.246;10.368;2023-05-01T01:11:53;101503.91;;;11.68;64.18
11985;BME280;6052;53.246;10.368;2023-05-01T01:14:28;101500.84;;;11.64;64.20
11985;BME280;6052;53.246;10.368;2023-05-01T01:17:03;101500.03;;;11.64;64.57
11985;BME280;6052;53.246;10.368;2023-05-01T01:20:13;101503.41;;;11.53;64.78
11985;BME280;6052;53.246;10.368;2023-05-01T01:22:52;101500.63;;;11.41;65.47
11985;BME280;6052;53.246;10.368;2023-05-01T01:31:31;101495.72;;;11.38;64.86
11985;BME280;6052;53.246;10.368;2023-05-01T01:34:08;101501.84;;;11.45;64.53
11985;BME280;6052;53.246;10.368;2023-05-01T01:36:48;101490.84;;;11.29;64.84
11985;BME280;6052;53.246;10.368;2023-05-01T01:39:26;101493.53;;;11.29;65.30
11985;BME280;6052;53.246;10.368;2023-05-01T01:41:57;101484.94;;;11.20;66.03
11985;BME280;6052;53.246;10.368;2023-05-01T01:44:32;101481.44;;;11.20;65.97
11985;BME280;6052;53.246;10.368;2023-05-01T01:47:06;101486.00;;;11.19;65.21
11985;BME280;6052;53.246;10.368;2023-05-01T01:49:43;101482.31;;;11.14;65.70
11985;BME280;6052;53.246;10.368;2023-05-01T01:52:15;101477.78;;;11.14;65.91
11985;BME280;6052;53.246;10.368;2023-05-01T01:54:50;101479.03;;;11.12;65.77
11985;BME280;6052;53.246;10.368;2023-05-01T01:57:22;101478.66;;;11.26;64.99
11985;BME280;6052;53.246;10.368;2023-05-01T01:59:54;101477.34;;;11.35;64.49
11985;BME280;6052;53.246;10.368;2023-05-01T02:02:25;101476.38;;;11.30;64.73
11985;BME280;6052;53.246;10.368;2023-05-01T02:04:58;101469.66;;;11.39;64.49
11985;BME280;6052;53.246;10.368;2023-05-01T02:07:28;101470.84;;;11.43;64.35
11985;BME280;6052;53.246;10.368;2023-05-01T02:09:59;101465.31;;;11.38;64.09
11985;BME280;6052;53.246;10.368;2023-05-01T02:12:30;101466.44;;;11.30;64.41
11985;BME280;6052;53.246;10.368;2023-05-01T02:15:00;101460.69;;;11.27;64.49
11985;BME280;6052;53.246;10.368;2023-05-01T02:17:30;101454.56;;;11.20;64.65
11985;BME280;6052;53.246;10.368;2023-05-01T02:20:05;101444.19;;;11.23;64.16
11985;BME280;6052;53.246;10.368;2023-05-01T02:22:35;101447.03;;;11.28;63.96
11985;BME280;6052;53.246;10.368;2023-05-01T02:25:07;101445.16;;;11.29;63.90
11985;BME280;6052;53.246;10.368;2023-05-01T02:27:42;101442.47;;;11.29;63.74
11985;BME280;6052;53.246;10.368;2023-05-01T02:30:12;101443.44;;;11.34;64.01
11985;BME280;6052;53.246;10.368;2023-05-01T02:32:45;101436.56;;;11.20;63.92
11985;BME280;6052;53.246;10.368;2023-05-01T02:35:20;101433.56;;;11.10;64.27
11985;BME280;6052;53.246;10.368;2023-05-01T02:37:50;101431.94;;;11.09;64.24
11985;BME280;6052;53.246;10.368;2023-05-01T02:40:19;101427.69;;;11.02;64.78
11985;BME280;6052;53.246;10.368;2023-05-01T02:42:50;101421.47;;;11.01;64.57
11985;BME280;6052;53.246;10.368;2023-05-01T02:45:22;101423.03;;;10.91;65.33
11985;BME280;6052;53.246;10.368;2023-05-01T02:47:55;101413.88;;;10.74;65.75
11985;BME280;6052;53.246;10.368;2023-05-01T02:50:30;101418.81;;;10.77;65.74
11985;BME280;6052;53.246;10.368;2023-05-01T02:53:00;101417.66;;;10.66;66.57
11985;BME280;6052;53.246;10.368;2023-05-01T02:55:31;101411.25;;;10.67;66.35
11985;BME280;6052;53.246;10.368;2023-05-01T02:58:04;101406.03;;;10.72;66.10
11985;BME280;6052;53.246;10.368;2023-05-01T03:00:33;101409.25;;;10.63;66.42
11985;BME280;6052;53.246;10.368;2023-05-01T03:03:03;101405.50;;;10.64;66.03
11985;BME280;6052;53.246;10.368;2023-05-01T03:05:36;101395.88;;;10.56;66.75
11985;BME280;6052;53.246;10.368;2023-05-01T03:08:06;101396.91;;;10.55;66.72
11985;BME280;6052;53.246;10.368;2023-05-01T03:10:38;101402.84;;;10.39;67.80
11985;BME280;6052;53.246;10.368;2023-05-01T03:13:08;101400.91;;;10.46;67.46
11985;BME280;6052;53.246;10.368;2023-05-01T03:15:40;101388.75;;;10.44;67.09
11985;BME280;6052;53.246;10.368;2023-05-01T03:18:10;101389.69;;;10.31;67.61
11985;BME280;6052;53.246;10.368;2023-05-01T03:20:49;101383.81;;;10.41;66.79
11985;BME280;6052;53.246;10.368;2023-05-01T03:23:19;101384.53;;;10.54;66.10
11985;BME280;6052;53.246;10.368;2023-05-01T03:25:49;101388.97;;;10.67;65.67
11985;BME280;6052;53.246;10.368;2023-05-01T03:28:18;101384.81;;;10.71;65.31
11985;BME280;6052;53.246;10.368;2023-05-01T03:30:49;101379.59;;;10.76;64.69
11985;BME280;6052;53.246;10.368;2023-05-01T03:33:19;101375.25;;;10.75;nan
11985;BME280;6052;53.246;10.368;2023-05-01T03:35:58;101372.72;;;10.80;64.48
11985;BME280;6052;53.246;10.368;2023-05-01T03:38:27;101373.97;;;10.77;64.81
11985;BME280;6052;53.246;10.368;2023-05-01T03:40:57;101372.91;;;10.60;65.00
11985;BME280;6052;53.246;10.368;2023-05-01T03:43:27;101373.66;;;10.67;65.19
11985;BME280;6052;53.246;10.368;2023-05-01T03:45:56;101370.56;;;10.46;65.93
11985;BME280;6052;53.246;10.368;2023-05-01T03:48:26;101371.28;;;10.35;66.57
11985;BME280;6052;53.246;10.368;2023-05-01T03:50:58;101363.38;;;10.40;66.36
11985;BME280;6052;53.246;10.368;2023-05-01T03:53:28;101358.47;;;10.37;66.45
11985;BME280;6052;53.246;10.368;2023-05-01T03:55:58;101349.59;;;10.36;66.25
11985;BME280;6052;53.246;10.368;2023-05-01T03:58:30;101357.69;;;10.30;67.18
11985;BME280;6052;53.246;10.368;2023-05-01T04:00:59;101355.88;;;10.24;66.97
11985;BME280;6052;53.246;10.368;2023-05-01T04:03:29;101354.41;;;10.28;66.76
11985;BME280;6052;53.246;10.368;2023-05-01T04:06:01;101352.78;;;10.27;67.72
11985;BME280;6052;53.246;10.368;2023-05-01T04:08:31;101350.56;;;10.17;67.97
11985;BME280;6052;53.246;10.368;2023-05-01T04:11:00;101349.91;;;10.22;67.79
11985;BME280;6052;53.246;10.368;2023-05-01T04:13:29;101349.09;;;10.21;67.27
11985;BME280;6052;53.246;10.368;2023-05-01T04:15:59;101353.41;;;10.22;67.78
11985;BME280;6052;53.246;10.368;2023-05-01T04:18:28;101353.41;;;10.22;67.79
11985;BME280;6052;53.246;10.368;2023-05-01T04:20:57;101343.72;;;10.21;67.62
11985;BME280;6052;53.246;10.368;2023-05-01T04:23:31;101346.69;;;10.38;67.08
11985;BME280;6052;53.246;10.368;2023-05-01T04:26:00;101336.44;;;10.28;67.33
11985;BME280;6052;53.246;10.368;2023-05-01T04:28:30;101347.69;;;10.19;68.10
11985;BME280;6052;53.246;10.368;2023-05-01T04:30:59;101341.84;;;10.22;68.57
11985;BME280;6052;53.246;10.368;2023-05-01T04:33:29;101344.72;;;10.27;69.10
11985;BME280;6052;53.246;10.368;2023-05-01T04:35:58;101341.69;;;10.17;69.93
11985;BME280;6052;53.246;10.368;2023-05-01T04:38:30;101339.88;;;10.11;71.30
11985;BME280;6052;53.246;10.368;2023-05-01T04:41:03;101337.66;;;10.01;71.68
11985;BME280;6052;53.246;10.368;2023-05-01T04:43:33;101329.25;;;9.98;72.54
11985;BME280;6052;53.246;10.368;2023-05-01T04:46:02;101324.91;;;9.97;72.49
11985;BME280;6052;53.246;10.368;2023-05-01T04:48:32;101321.78;;;10.00;72.71
11985;BME280;6052;53.246;10.368;2023-05-01T04:51:02;101319.09;;;10.00;73.12
11985;BME280;6052;53.246;10.368;2023-05-01T04:53:34;101319.53;;;9.97;73.50
11985;BME280;6052;53.246;10.368;2023-05-01T04:56:04;101324.38;;;9.82;74.51
11985;BME280;6052;53.246;10.368;2023-05-01T04:58:34;101310.81;;;9.77;74.88
11985;BME280;6052;53.246;10.368;2023-05-01T05:01:03;101311.63;;;9.77;74.41
11985;BME280;6052;53.246;10.368;2023-05-01T05:03:33;101317.38;;;9.81;75.21
11985;BME280;6052;53.246;10.368;2023-05-01T05:06:03;101323.56;;;9.81;76.10
11985;BME280;6052;53.246;10.368;2023-05-01T05:08:35;101317.75;;;9.84;76.72
11985;BME280;6052;53.246;10.368;2023-05-01T05:11:04;101315.91;;;9.85;77.12
11985;BME280;6052;53.246;10.368;2023-05-01T05:13:33;101330.63;;;9.76;76.92
11985;BME280;6052;53.246;10.368;2023-05-01T05:16:04;101325.38;;;9.87;77.88
11985;BME280;6052;53.246;10.368;2023-05-01T05:18:33;101318.97;;;9.88;78.15
11985;BME280;6052;53.246;10.368;2023-05-01T05:21:03;101326.47;;;9.80;79.49
11985;BME280;6052;53.246;10.368;2023-05-01T05:23:36;101326.03;;;9.83;79.44
11985;BME280;6052;53.246;10.368;2023-05-01T05:26:05;101326.53;;;9.67;80.04
11985;BME280;6052;53.246;10.368;2023-05-01T05:28:35;101318.94;;;9.64;81.61
11985;BME280;6052;53.246;10.368;2023-05-01T05:31:04;101323.66;;;9.68;81.48
11985;BME280;6052;53.246;10.368;2023-05-01T05:33:34;101316.13;;;9.52;81.01
11985;BME280;6052;53.246;10.368;2023-05-01T05:36:04;101313.25;;;9.54;80.48
11985;BME280;6052;53.246;10.368;2023-05-01T05:38:36;101307.59;;;9.62;80.16
11985;BME280;6052;53.246;10.368;2023-05-01T05:41:06;101307.78;;;9.67;80.55
11985;BME280;6052;53.246;10.368;2023-05-01T05:43:35;101304.19;;;9.79;81.03
11985;BME280;6052;53.246;10.368;2023-05-01T05:46:04;101302.94;;;9.82;81.17
11985;BME280;6052;53.246;10.368;2023-05-01T05:48:34;101306.81;;;9.86;81.88
11985;BME280;6052;53.246;10.368;2023-05-01T05:51:04;101302.09;;;9.88;81.50
11985;BME280;6052;53.246;10.368;2023-05-01T05:53:39;101296.81;;;9.99;80.89
11985;BME280;6052;53.246;10.368;2023-05-01T05:56:08;101292.38;;;9.87;79.88
11985;BME280;6052;53.246;10.368;2023-05-01T05:58:38;101290.81;;;10.04;81.60
11985;BME280;6052;53.246;10.368;2023-05-01T06:01:07;101292.88;;;10.08;80.69
11985;BME280;6052;53.246;10.368;2023-05-01T06:03:37;101290.81;;;10.10;80.72
11985;BME280;6052;53.246;10.368;2023-05-01T06:06:07;101287.28;;;10.10;80.78
11985;BME280;6052;53.246;10.368;2023-05-01T06:08:39;101286.41;;;10.16;81.36
11985;BME280;6052;53.246;10.368;2023-05-01T06:11:10;101291.13;;;10.20;80.89
11985;BME280;6052;53.246;10.368;2023-05-01T06:13:40;101293.34;;;10.23;81.68
11985;BME280;6052;53.246;10.368;2023-05-01T06:16:10;101293.66;;;10.15;80.80
11985;BME280;6052;53.246;10.368;2023-05-01T06:18:41;101289.97;;;10.10;81.96
11985;BME280;6052;53.246;10.368;2023-05-01T06:21:11;101296.13;;;10.35;80.69
11985;BME280;6052;53.246;10.368;2023-05-01T06:23:43;101289.72;;;10.36;80.37
11985;BME280;6052;53.246;10.368;2023-05-01T06:26:14;101279.94;;;10.23;81.60
11985;BME280;6052;53.246;10.368;2023-05-01T06:28:43;101277.47;;;10.22;82.39
11985;BME280;6052;53.246;10.368;2023-05-01T06:31:13;101276.56;;;10.10;82.18
11985;BME280;6052;53.246;10.368;2023-05-01T06:33:42;101282.25;;;10.20;82.45
11985;BME280;6052;53.246;10.368;2023-05-01T06:36:11;101278.09;;;10.24;82.90
11985;BME280;6052;53.246;10.368;2023-05-01T06:38:43;101273.94;;;10.28;84.49
11985;BME280;6052;53.246;10.368;2023-05-01T06:41:14;101270.78;;;10.31;83.36
11985;BME280;6052;53.246;10.368;2023-05-01T06:43:44;101260.44;;;10.34;82.19
11985;BME280;6052;53.246;10.368;2023-05-01T06:46:13;101264.63;;;10.30;82.37
11985;BME280;6052;53.246;10.368;2023-05-01T06:48:42;101255.16;;;10.46;82.12
11985;BME280;6052;53.246;10.368;2023-05-01T06:51:12;101266.63;;;10.35;83.03
11985;BME280;6052;53.246;10.368;2023-05-01T06:53:44;101267.16;;;10.43;83.34
11985;BME280;6052;53.246;10.368;2023-05-01T06:56:14;101260.09;;;10.49;82.90
11985;BME280;6052;53.246;10.368;2023-05-01T06:58:43;101261.06;;;10.54;80.27
11985;BME280;6052;53.246;10.368;2023-05-01T07:01:12;101261.16;;;10.66;82.29
11985;BME280;6052;53.246;10.368;2023-05-01T07:03:42;101258.00;;;10.69;81.52
11985;BME280;6052;53.246;10.368;2023-05-01T07:06:11;101264.06;;;10.64;81.07
11985;BME280;6052;53.246;10.368;2023-05-01T07:08:43;101258.06;;;10.80;81.78
11985;BME280;6052;53.246;10.368;2023-05-01T07:11:13;101258.00;;;10.87;78.69
11985;BME280;6052;53.246;10.368;2023-05-01T07:13:42;101256.66;;;10.96;80.39
11985;BME280;6052;53.246;10.368;2023-05-01T07:16:12;101245.59;;;11.04;79.25
11985;BME280;6052;53.246;10.368;2023-05-01T07:18:41;101236.88;;;11.08;81.52
11985;BME280;6052;53.246;10.368;2023-05-01T07:21:10;101240.63;;;11.19;80.76
11985;BME280;6052;53.246;10.368;2023-05-01T07:23:40;101241.53;;;11.13;80.81
11985;BME280;6052;53.246;10.368;2023-05-01T07:26:12;101234.25;;;11.31;80.87
11985;BME280;6052;53.246;10.368;2023-05-01T07:28:41;101233.59;;;11.36;79.42
11985;BME280;6052;53.246;10.368;2023-05-01T07:31:11;101225.22;;;11.44;79.68
11985;BME280;6052;53.246;10.368;2023-05-01T07:33:41;101221.13;;;11.53;78.86
11985;BME280;6052;53.246;10.368;2023-05-01T07:36:11;101219.91;;;11.67;79.52
11985;BME280;6052;53.246;10.368;2023-05-01T07:38:40;101216.63;;;11.65;78.44
11985;BME280;6052;53.246;10.368;2023-05-01T07:41:13;101216.41;;;11.89;78.17
11985;BME280;6052;53.246;10.368;2023-05-01T07:43:42;101213.16;;;11.99;77.61
11985;BME280;6052;53.246;10.368;2023-05-01T07:46:11;101214.69;;;12.06;76.30
11985;BME280;6052;53.246;10.368;2023-05-01T07:48:41;101212.56;;;12.08;74.89
11985;BME280;6052;53.246;10.368;2023-05-01T07:51:10;101209.75;;;12.26;74.69
11985;BME280;6052;53.246;10.368;2023-05-01T07:53:40;101204.38;;;12.38;73.53
11985;BME280;6052;53.246;10.368;2023-05-01T07:56:09;101207.06;;;12.49;74.12
11985;BME280;6052;53.246;10.368;2023-05-01T07:58:41;101197.50;;;12.70;72.29
11985;BME280;6052;53.246;10.368;2023-05-01T08:01:11;101194.56;;;12.83;72.82
11985;BME280;6052;53.246;10.368;2023-05-01T08:03:41;101187.72;;;12.92;73.87
11985;BME280;6052;53.246;10.368;2023-05-01T08:06:10;101193.09;;;13.03;73.65
11985;BME280;6052;53.246;10.368;2023-05-01T08:08:40;101186.00;;;13.14;72.17
11985;BME280;6052;53.246;10.368;2023-05-01T08:11:10;101184.47;;;13.18;71.14
11985;BME280;6052;53.246;10.368;2023-05-01T08:13:42;101176.09;;;13.31;69.99
11985;BME280;6052;53.246;10.368;2023-05-01T08:16:12;101185.66;;;13.38;70.15
11985;BME280;6052;53.246;10.368;2023-05-01T08:18:41;101184.53;;;13.51;69.14
11985;BME280;6052;53.246;10.368;2023-05-01T08:21:11;101178.66;;;13.54;69.31
11985;BME280;6052;53.246;10.368;2023-05-01T08:23:41;101174.31;;;13.69;68.71
11985;BME280;6052;53.246;10.368;2023-05-01T08:26:10;101172.28;;;13.93;68.68
11985;BME280;6052;53.246;10.368;2023-05-01T08:28:42;101170.34;;;14.10;70.66
11985;BME280;6052;53.246;10.368;2023-05-01T08:31:12;101169.28;;;14.11;68.79
11985;BME280;6052;53.246;10.368;2023-05-01T08:33:41;101169.28;;;14.11;68.62
11985;BME280;6052;53.246;10.368;2023-05-01T08:36:10;101167.41;;;14.11;66.69
11985;BME280;6052;53.246;10.368;2023-05-01T08:38:40;101167.97;;;14.13;66.68
11985;BME280;6052;53.246;10.368;2023-05-01T08:41:14;101167.84;;;14.20;65.96
11985;BME280;6052;53.246;10.368;2023-05-01T08:43:47;101159.56;;;14.26;67.13
11985;BME280;6052;53.246;10.368;2023-05-01T08:46:23;101156.81;;;14.43;65.41
11985;BME280;6052;53.246;10.368;2023-05-01T08:48:56;101148.81;;;14.31;63.49
11985;BME280;6052;53.246;10.368;2023-05-01T08:51:27;101146.75;;;14.38;63.64
11985;BME280;6052;53.246;10.368;2023-05-01T08:54:00;101145.06;;;14.54;64.29
11985;BME280;6052;53.246;10.368;2023-05-01T08:56:30;101137.31;;;14.62;64.57
11985;BME280;6052;53.246;10.368;2023-05-01T08:59:03;101133.94;;;14.72;64.28
11985;BME280;6052;53.246;10.368;2023-05-01T09:01:34;101130.28;;;15.09;64.66
11985;BME280;6052;53.246;10.368;2023-05-01T09:04:05;101123.34;;;14.92;63.44
11985;BME280;6052;53.246;10.368;2023-05-01T09:06:36;101130.41;;;14.98;61.95
11985;BME280;6052;53.246;10.368;2023-05-01T09:09:05;101128.69;;;14.87;62.73
11985;BME280;6052;53.246;10.368;2023-05-01T09:11:35;101124.31;;;14.81;62.71
11985;BME280;6052;53.246;10.368;2023-05-01T09:14:07;101123.97;;;14.77;62.11
11985;BME280;6052;53.246;10.368;2023-05-01T09:16:36;101124.41;;;14.91;61.63
11985;BME280;6052;53.246;10.368;2023-05-01T09:19:06;101119.06;;;14.96;61.15
11985;BME280;6052;53.246;10.368;2023-05-01T09:21:35;101122.41;;;15.08;61.51
11985;BME280;6052;53.246;10.368;2023-05-01T09:24:05;101115.00;;;15.25;60.83
11985;BME280;6052;53.246;10.368;2023-05-01T09:26:35;101116.41;;;15.59;61.94
11985;BME280;6052;53.246;10.368;2023-05-01T09:29:10;101111.34;;;15.36;61.57
11985;BME280;6052;53.246;10.368;2023-05-01T09:31:40;101119.47;;;15.36;62.08
11985;BME280;6052;53.246;10.368;2023-05-01T09:34:09;101104.59;;;15.38;60.97
11985;BME280;6052;53.246;10.368;2023-05-01T09:36:44;101097.06;;;15.82;60.17
11985;BME280;6052;53.246;10.368;2023-05-01T09:39:21;101095.25;;;15.92;61.92
11985;BME280;6052;53.246;10.368;2023-05-01T09:41:51;101101.03;;;15.69;60.82
11985;BME280;6052;53.246;10.368;2023-05-01T09:44:23;101100.59;;;15.82;60.69
11985;BME280;6052;53.246;10.368;2023-05-01T09:46:53;101098.13;;;15.76;60.81
11985;BME280;6052;53.246;10.368;2023-05-01T09:49:43;101087.59;;;15.84;60.85
11985;BME280;6052;53.246;10.368;2023-05-01T09:52:13;101092.22;;;16.35;60.80
11985;BME280;6052;53.246;10.368;2023-05-01T09:54:43;101092.97;;;16.31;60.08
11985;BME280;6052;53.246;10.368;2023-05-01T09:57:12;101082.34;;;16.14;61.43
11985;BME280;6052;53.246;10.368;2023-05-01T10:00:00;101073.09;;;16.00;58.18
11985;BME280;6052;53.246;10.368;2023-05-01T10:02:34;101077.03;;;16.29;59.02
11985;BME280;6052;53.246;10.368;2023-05-01T10:05:04;101083.38;;;16.03;57.81
11985;BME280;6052;53.246;10.368;2023-05-01T10:07:34;101074.16;;;15.99;58.16
11985;BME280;6052;53.246;10.368;2023-05-01T10:10:16;101069.44;;;16.36;59.02
11985;BME280;6052;53.246;10.368;2023-05-01T10:12:47;101068.19;;;16.54;61.29
11985;BME280;6052;53.246;10.368;2023-05-01T10:15:19;101064.94;;;16.57;61.22
11985;BME280;6052;53.246;10.368;2023-05-01T10:17:52;101056.63;;;16.98;60.29
11985;BME280;6052;53.246;10.368;2023-05-01T10:20:22;101048.63;;;16.42;59.37
11985;BME280;6052;53.246;10.368;2023-05-01T10:22:53;101055.78;;;16.83;58.97
11985;BME280;6052;53.246;10.368;2023-05-01T10:25:24;101045.47;;;16.85;57.56
11985;BME280;6052;53.246;10.368;2023-05-01T10:27:54;101043.00;;;16.58;57.66
11985;BME280;6052;53.246;10.368;2023-05-01T10:30:27;101045.19;;;16.71;56.54
11985;BME280;6052;53.246;10.368;2023-05-01T10:32:58;101043.06;;;16.98;57.16
11985;BME280;6052;53.246;10.368;2023-05-01T10:35:32;101039.50;;;17.23;57.20
11985;BME280;6052;53.246;10.368;2023-05-01T10:38:05;101031.38;;;16.78;57.50
11985;BME280;6052;53.246;10.368;2023-05-01T10:40:43;101027.81;;;16.77;57.15
11985;BME280;6052;53.246;10.368;2023-05-01T10:43:15;101028.13;;;16.91;56.27
11985;BME280;6052;53.246;10.368;2023-05-01T10:45:47;101021.88;;;17.00;56.64
11985;BME280;6052;53.246;10.368;2023-05-01T10:51:20;101013.75;;;16.95;55.63
11985;BME280;6052;53.246;10.368;2023-05-01T10:54:21;100993.97;;;17.15;56.84
11985;BME280;6052;53.246;10.368;2023-05-01T10:56:54;101003.44;;;17.17;56.64
11985;BME280;6052;53.246;10.368;2023-05-01T10:59:24;101001.00;;;17.11;54.86
11985;BME280;6052;53.246;10.368;2023-05-01T11:01:56;100999.38;;;17.30;54.72
11985;BME280;6052;53.246;10.368;2023-05-01T11:04:44;101002.09;;;17.15;55.55
11985;BME280;6052;53.246;10.368;2023-05-01T11:07:17;100990.94;;;17.21;54.66
11985;BME280;6052;53.246;10.368;2023-05-01T11:09:49;100983.88;;;17.45;55.74
11985;BME280;6052;53.246;10.368;2023-05-01T11:12:51;100977.66;;;17.35;55.38
11985;BME280;6052;53.246;10.368;2023-05-01T11:15:28;100978.19;;;17.27;55.53
11985;BME280;6052;53.246;10.368;2023-05-01T11:18:01;100969.25;;;17.16;55.55
11985;BME280;6052;53.246;10.368;2023-05-01T11:20:46;100969.81;;;17.08;55.88
11985;BME280;6052;53.246;10.368;2023-05-01T11:23:20;100969.44;;;17.65;55.26
11985;BME280;6052;53.246;10.368;2023-05-01T11:26:01;100961.38;;;17.40;55.39
11985;BME280;6052;53.246;10.368;2023-05-01T11:28:32;100952.16;;;17.21;54.79
11985;BME280;6052;53.246;10.368;2023-05-01T11:31:02;100960.31;;;17.21;56.08
11985;BME280;6052;53.246;10.368;2023-05-01T11:33:34;100950.78;;;17.43;56.29
11985;BME280;6052;53.246;10.368;2023-05-01T11:36:04;100959.44;;;17.45;56.53
11985;BME280;6052;53.246;10.368;2023-05-01T11:38:34;100955.63;;;17.61;56.05
11985;BME280;6052;53.246;10.368;2023-05-01T11:41:03;100947.91;;;17.83;57.17
11985;BME280;6052;53.246;10.368;2023-05-01T11:43:32;100939.63;;;17.55;54.90
11985;BME280;6052;53.246;10.368;2023-05-01T11:46:02;100945.81;;;17.60;55.05
11985;BME280;6052;53.246;10.368;2023-05-01T11:48:34;100945.72;;;17.90;55.89
11985;BME280;6052;53.246;10.368;2023-05-01T11:51:11;100935.84;;;18.04;53.65
11985;BME280;6052;53.246;10.368;2023-05-01T11:53:41;100932.41;;;17.94;54.64
11985;BME280;6052;53.246;10.368;2023-05-01T11:56:19;100915.91;;;17.70;55.26
11985;BME280;6052;53.246;10.368;2023-05-01T11:58:53;100918.97;;;17.64;54.62
11985;BME280;6052;53.246;10.368;2023-05-01T12:01:32;100919.66;;;17.84;54.48
11985;BME280;6052;53.246;10.368;2023-05-01T12:04:06;100917.47;;;17.91;56.15
11985;BME280;6052;53.246;10.368;2023-05-01T12:06:36;100912.19;;;18.10;55.23
11985;BME280;6052;53.246;10.368;2023-05-01T12:09:10;100906.81;;;18.00;55.10
11985;BME280;6052;53.246;10.368;2023-05-01T12:11:44;100911.16;;;18.49;56.29
11985;BME280;6052;53.246;10.368;2023-05-01T12:14:18;100908.03;;;18.22;55.58
11985;BME280;6052;53.246;10.368;2023-05-01T12:16:50;100900.94;;;18.26;55.82
11985;BME280;6052;53.246;10.368;2023-05-01T12:19:22;100911.31;;;18.63;55.69
11985;BME280;6052;53.246;10.368;2023-05-01T12:22:04;100904.75;;;18.25;54.64
11985;BME280;6052;53.246;10.368;2023-05-01T12:24:35;100908.91;;;18.56;55.17
11985;BME280;6052;53.246;10.368;2023-05-01T12:27:05;100901.19;;;18.30;54.08
11985;BME280;6052;53.246;10.368;2023-05-01T12:29:38;100894.78;;;18.11;53.22
11985;BME280;6052;53.246;10.368;2023-05-01T12:32:10;100895.47;;;18.70;57.13
11985;BME280;6052;53.246;10.368;2023-05-01T12:34:42;100883.59;;;18.61;54.97
11985;BME280;6052;53.246;10.368;2023-05-01T12:37:12;100890.28;;;18.40;54.58
11985;BME280;6052;53.246;10.368;2023-05-01T12:39:42;100875.63;;;18.36;54.93
11985;BME280;6052;53.246;10.368;2023-05-01T12:42:13;100873.44;;;18.38;55.70
11985;BME280;6052;53.246;10.368;2023-05-01T12:44:43;100876.69;;;18.40;56.11
11985;BME280;6052;53.246;10.368;2023-05-01T12:47:13;100868.34;;;18.26;54.27
11985;BME280;6052;53.246;10.368;2023-05-01T12:49:45;100867.78;;;18.29;53.35
11985;BME280;6052;53.246;10.368;2023-05-01T12:52:14;100864.13;;;19.29;53.13
11985;BME280;6052;53.246;10.368;2023-05-01T12:54:43;100861.44;;;19.01;54.54
11985;BME280;6052;53.246;10.368;2023-05-01T12:57:14;100866.13;;;18.95;55.16
11985;BME280;6052;53.246;10.368;2023-05-01T12:59:44;100855.22;;;18.72;53.69
11985;BME280;6052;53.246;10.368;2023-05-01T13:02:16;100840.56;;;18.68;53.50
11985;BME280;6052;53.246;10.368;2023-05-01T13:04:48;100840.44;;;18.78;55.54
11985;BME280;6052;53.246;10.368;2023-05-01T13:07:18;100841.69;;;19.14;54.99
11985;BME280;6052;53.246;10.368;2023-05-01T13:09:51;100844.69;;;18.89;53.20
11985;BME280;6052;53.246;10.368;2023-05-01T13:12:21;100829.63;;;18.73;52.14
11985;BME280;6052;53.246;10.368;2023-05-01T13:14:51;100833.53;;;18.62;53.75
11985;BME280;6052;53.246;10.368;2023-05-01T13:17:22;100827.78;;;18.92;54.89
11985;BME280;6052;53.246;10.368;2023-05-01T13:19:56;100821.84;;;18.61;54.68
11985;BME280;6052;53.246;10.368;2023-05-01T13:22:28;100828.13;;;18.85;55.12